Погода Жероминна неделю

Лодзинское воеводство, Польша

24 - 30 мая
  • 24мая
    Сегодня
    +12°
    +24°
    Практически безоблачно
    ВремяПогодаТемператураВлажностьДавлениеВетер, м/сВероятность осадков
    02:00Пасмурно, ливень+14°C93 %744 мм1.0 м/с37 %
    05:00Небольшая облачность+13°C98 %744 мм0.5 м/с24 %
    08:00Ясно и безоблачно+18°C83 %745 мм1.4 м/с4 %
    11:00Практически безоблачно+22°C64 %746 мм2.8 м/с2 %
    14:00Практически безоблачно+23°C55 %745 мм4.0 м/с5 %
    17:00Практически безоблачно+23°C45 %744 мм3.7 м/с15 %
    20:00Ясно и безоблачно+19°C73 %744 мм2.2 м/с22 %
    23:00Ясно и безоблачно+15°C85 %744 мм1.3 м/с2 %
  • 25мая
    Суббота
    +11°
    +24°
    Облачно с прояснениями
    ВремяПогодаТемператураВлажностьДавлениеВетер, м/сВероятность осадков
    02:00Ясно и безоблачно+14°C90 %745 мм1.7 м/с2 %
    05:00Ясно и безоблачно+12°C95 %745 мм0.8 м/с2 %
    08:00Ясно и безоблачно+18°C77 %745 мм2.1 м/с1 %
    11:00Небольшая облачность+22°C58 %746 мм3.0 м/с15 %
    14:00Облачно с прояснениями+22°C51 %745 мм3.2 м/с29 %
    17:00Небольшая облачность+22°C48 %744 мм2.6 м/с46 %
    20:00Облачно с прояснениями, ливень+19°C82 %745 мм2.0 м/с44 %
    23:00Ясно и безоблачно+15°C93 %745 мм1.1 м/с9 %
  • 26мая
    Воскресенье
    +12°
    +26°
    Практически безоблачно
    ВремяПогодаТемператураВлажностьДавлениеВетер, м/сВероятность осадков
    02:00Небольшая облачность+14°C96 %745 мм1.5 м/с2 %
    05:00Ясно и безоблачно+12°C98 %745 мм0.8 м/с2 %
    08:00Ясно и безоблачно+19°C75 %746 мм1.5 м/с2 %
    11:00Практически безоблачно+24°C49 %746 мм2.9 м/с8 %
    14:00Практически безоблачно+25°C39 %746 мм3.7 м/с24 %
    17:00Практически безоблачно+23°C51 %746 мм3.3 м/с41 %
    20:00Практически безоблачно+21°C62 %746 мм2.5 м/с21 %
    23:00Практически безоблачно+16°C73 %746 мм1.1 м/с5 %
  • 27мая
    Понедельник
    +11°
    +26°
    Ясно и безоблачно
    ВремяПогодаТемператураВлажностьДавлениеВетер, м/сВероятность осадков
    02:00Облачно с прояснениями+14°C84 %746 мм1.7 м/с2 %
    05:00Ясно и безоблачно+12°C87 %746 мм1.1 м/с2 %
    08:00Ясно и безоблачно+19°C66 %747 мм2.5 м/с2 %
    11:00Ясно и безоблачно+24°C37 %747 мм3.9 м/с7 %
    14:00Ясно и безоблачно+25°C25 %746 мм4.7 м/с10 %
    17:00Ясно и безоблачно+25°C24 %745 мм4.4 м/с9 %
    20:00Ясно и безоблачно+22°C38 %745 мм2.7 м/с6 %
    23:00Ясно и безоблачно+16°C45 %745 мм2.2 м/с2 %
  • 28мая
    Вторник
    +13°
    +25°
    Небольшая облачность
    ВремяПогодаТемператураВлажностьДавлениеВетер, м/сВероятность осадков
    02:00Ясно и безоблачно+14°C49 %745 мм1.9 м/с2 %
    05:00Ясно и безоблачно+12°C59 %745 мм1.5 м/с2 %
    08:00Ясно и безоблачно+18°C50 %745 мм3.3 м/с2 %
    11:00Небольшая облачность+24°C27 %745 мм5.4 м/с3 %
    14:00Небольшая облачность+24°C26 %745 мм5.2 м/с2 %
    17:00Облачно с прояснениями+25°C26 %744 мм4.0 м/с6 %
    20:00Ясно и безоблачно+22°C52 %743 мм2.2 м/с4 %
    23:00Ясно и безоблачно+17°C53 %744 мм1.0 м/с2 %
Мы используем cookies
Соглашаюсь